sensor_id;sensor_type;location;lat;lon;timestamp;temperature;humidity
28175;SHT30;59417;44.788;10.334;2023-11-21T00:01:59;11.95;80.57
28175;SHT30;59417;44.788;10.334;2023-11-21T00:04:24;11.95;80.69
28175;SHT30;59417;44.788;10.334;2023-11-21T00:06:51;11.91;80.76
28175;SHT30;59417;44.788;10.334;2023-11-21T00:09:16;11.99;80.67
28175;SHT30;59417;44.788;10.334;2023-11-21T00:11:43;11.95;80.69
28175;SHT30;59417;44.788;10.334;2023-11-21T00:14:10;12.04;80.43
28175;SHT30;59417;44.788;10.334;2023-11-21T00:16:36;12.02;80.42
28175;SHT30;59417;44.788;10.334;2023-11-21T00:19:02;11.94;80.55
28175;SHT30;59417;44.788;10.334;2023-11-21T00:21:28;11.95;80.55
28175;SHT30;59417;44.788;10.334;2023-11-21T00:23:53;12.09;80.34
28175;SHT30;59417;44.788;10.334;2023-11-21T00:26:19;11.97;80.52
28175;SHT30;59417;44.788;10.334;2023-11-21T00:28:53;11.88;80.87
28175;SHT30;59417;44.788;10.334;2023-11-21T00:31:19;11.90;80.91
28175;SHT30;59417;44.788;10.334;2023-11-21T00:33:44;11.93;80.91
28175;SHT30;59417;44.788;10.334;2023-11-21T01:06:28;11.80;81.44
28175;SHT30;59417;44.788;10.334;2023-11-21T01:08:58;11.76;81.46
28175;SHT30;59417;44.788;10.334;2023-11-21T01:14:24;11.73;81.29
28175;SHT30;59417;44.788;10.334;2023-11-21T01:17:13;11.74;80.95
28175;SHT30;59417;44.788;10.334;2023-11-21T01:19:43;11.74;81.03
28175;SHT30;59417;44.788;10.334;2023-11-21T01:22:47;11.74;81.11
28175;SHT30;59417;44.788;10.334;2023-11-21T01:25:56;11.71;81.14
28175;SHT30;59417;44.788;10.334;2023-11-21T01:28:22;11.80;80.93
28175;SHT30;59417;44.788;10.334;2023-11-21T01:31:04;11.74;81.21
28175;SHT30;59417;44.788;10.334;2023-11-21T01:33:50;11.76;80.77
28175;SHT30;59417;44.788;10.334;2023-11-21T01:36:56;11.76;80.62
28175;SHT30;59417;44.788;10.334;2023-11-21T01:39:28;11.74;80.70
28175;SHT30;59417;44.788;10.334;2023-11-21T01:41:59;11.73;80.65
28175;SHT30;59417;44.788;10.334;2023-11-21T01:44:43;11.69;80.69
28175;SHT30;59417;44.788;10.334;2023-11-21T01:47:13;11.74;80.40
28175;SHT30;59417;44.788;10.334;2023-11-21T01:50:08;11.66;80.45
28175;SHT30;59417;44.788;10.334;2023-11-21T01:52:35;11.66;80.54
28175;SHT30;59417;44.788;10.334;2023-11-21T01:55:04;11.69;80.42
28175;SHT30;59417;44.788;10.334;2023-11-21T02:00:36;11.73;79.84
28175;SHT30;59417;44.788;10.334;2023-11-21T02:03:05;11.63;80.20
28175;SHT30;59417;44.788;10.334;2023-11-21T02:05:32;11.69;80.23
28175;SHT30;59417;44.788;10.334;2023-11-21T02:08:06;11.77;79.99
28175;SHT30;59417;44.788;10.334;2023-11-21T02:10:31;11.80;79.43
28175;SHT30;59417;44.788;10.334;2023-11-21T02:13:03;11.73;79.40
28175;SHT30;59417;44.788;10.334;2023-11-21T02:15:29;11.86;78.78
28175;SHT30;59417;44.788;10.334;2023-11-21T02:17:57;11.86;78.68
28175;SHT30;59417;44.788;10.334;2023-11-21T02:20:24;11.87;78.45
28175;SHT30;59417;44.788;10.334;2023-11-21T02:22:53;11.84;78.50
28175;SHT30;59417;44.788;10.334;2023-11-21T02:25:41;11.81;78.40
28175;SHT30;59417;44.788;10.334;2023-11-21T02:28:15;11.78;78.38
28175;SHT30;59417;44.788;10.334;2023-11-21T02:31:04;11.74;78.56
28175;SHT30;59417;44.788;10.334;2023-11-21T02:33:32;11.73;78.67
28175;SHT30;59417;44.788;10.334;2023-11-21T02:36:02;11.69;78.84
28175;SHT30;59417;44.788;10.334;2023-11-21T02:38:34;11.64;79.18
28175;SHT30;59417;44.788;10.334;2023-11-21T02:41:03;11.74;78.85
28175;SHT30;59417;44.788;10.334;2023-11-21T02:43:30;11.73;78.65
28175;SHT30;59417;44.788;10.334;2023-11-21T02:46:30;11.73;78.20
28175;SHT30;59417;44.788;10.334;2023-11-21T02:49:06;11.73;78.59
28175;SHT30;59417;44.788;10.334;2023-11-21T02:51:32;11.80;78.66
28175;SHT30;59417;44.788;10.334;2023-11-21T02:54:06;11.81;78.56
28175;SHT30;59417;44.788;10.334;2023-11-21T02:56:37;11.77;78.37
28175;SHT30;59417;44.788;10.334;2023-11-21T02:59:31;11.78;78.20
28175;SHT30;59417;44.788;10.334;2023-11-21T03:01:57;11.77;77.96
28175;SHT30;59417;44.788;10.334;2023-11-21T03:04:31;11.80;78.09
28175;SHT30;59417;44.788;10.334;2023-11-21T03:07:04;11.81;77.93
28175;SHT30;59417;44.788;10.334;2023-11-21T03:10:12;11.93;77.79
28175;SHT30;59417;44.788;10.334;2023-11-21T03:12:48;11.88;77.46
28175;SHT30;59417;44.788;10.334;2023-11-21T03:15:16;11.73;77.93
28175;SHT30;59417;44.788;10.334;2023-11-21T03:18:05;11.71;78.40
28175;SHT30;59417;44.788;10.334;2023-11-21T03:20:52;11.70;78.68
28175;SHT30;59417;44.788;10.334;2023-11-21T03:26:27;11.66;79.12
28175;SHT30;59417;44.788;10.334;2023-11-21T03:29:09;11.71;78.77
28175;SHT30;59417;44.788;10.334;2023-11-21T03:31:37;11.71;78.71
28175;SHT30;59417;44.788;10.334;2023-11-21T03:34:03;11.67;78.93
28175;SHT30;59417;44.788;10.334;2023-11-21T03:36:50;11.70;78.99
28175;SHT30;59417;44.788;10.334;2023-11-21T03:39:21;11.66;78.85
28175;SHT30;59417;44.788;10.334;2023-11-21T03:41:51;11.71;79.12
28175;SHT30;59417;44.788;10.334;2023-11-21T03:44:42;12.05;78.28
28175;SHT30;59417;44.788;10.334;2023-11-21T03:48:09;11.93;78.75
28175;SHT30;59417;44.788;10.334;2023-11-21T03:51:03;11.99;78.60
28175;SHT30;59417;44.788;10.334;2023-11-21T03:53:37;11.91;78.79
28175;SHT30;59417;44.788;10.334;2023-11-21T03:56:14;11.86;79.31
28175;SHT30;59417;44.788;10.334;2023-11-21T03:58:44;11.73;79.54
28175;SHT30;59417;44.788;10.334;2023-11-21T04:01:09;11.78;79.63
28175;SHT30;59417;44.788;10.334;2023-11-21T04:03:35;11.84;79.61
28175;SHT30;59417;44.788;10.334;2023-11-21T04:06:01;11.81;79.53
28175;SHT30;59417;44.788;10.334;2023-11-21T04:08:27;11.70;80.08
28175;SHT30;59417;44.788;10.334;2023-11-21T04:11:05;11.56;80.76
28175;SHT30;59417;44.788;10.334;2023-11-21T04:13:39;11.55;81.00
28175;SHT30;59417;44.788;10.334;2023-11-21T04:16:12;11.49;81.23
28175;SHT30;59417;44.788;10.334;2023-11-21T04:18:38;11.87;79.78
28175;SHT30;59417;44.788;10.334;2023-11-21T04:24:27;11.71;80.26
28175;SHT30;59417;44.788;10.334;2023-11-21T04:27:09;11.67;80.50
28175;SHT30;59417;44.788;10.334;2023-11-21T04:29:34;11.56;81.22
28175;SHT30;59417;44.788;10.334;2023-11-21T04:32:03;11.84;80.06
28175;SHT30;59417;44.788;10.334;2023-11-21T04:34:31;11.90;79.65
28175;SHT30;59417;44.788;10.334;2023-11-21T04:37:03;11.84;80.13
28175;SHT30;59417;44.788;10.334;2023-11-21T04:39:29;11.56;80.64
28175;SHT30;59417;44.788;10.334;2023-11-21T04:42:04;11.38;81.73
28175;SHT30;59417;44.788;10.334;2023-11-21T04:44:32;11.78;80.44
28175;SHT30;59417;44.788;10.334;2023-11-21T04:47:05;11.86;80.17
28175;SHT30;59417;44.788;10.334;2023-11-21T04:49:33;11.83;79.86
28175;SHT30;59417;44.788;10.334;2023-11-21T04:52:09;11.76;80.48
28175;SHT30;59417;44.788;10.334;2023-11-21T04:54:35;11.69;80.74
28175;SHT30;59417;44.788;10.334;2023-11-21T04:57:04;11.66;80.99
28175;SHT30;59417;44.788;10.334;2023-11-21T04:59:36;11.76;80.38
28175;SHT30;59417;44.788;10.334;2023-11-21T05:02:14;11.71;80.31
28175;SHT30;59417;44.788;10.334;2023-11-21T05:04:40;11.49;81.43
28175;SHT30;59417;44.788;10.334;2023-11-21T05:07:33;11.38;82.00
28175;SHT30;59417;44.788;10.334;2023-11-21T05:10:13;11.62;81.13
28175;SHT30;59417;44.788;10.334;2023-11-21T05:12:57;11.50;80.76
28175;SHT30;59417;44.788;10.334;2023-11-21T05:15:36;11.87;79.44
28175;SHT30;59417;44.788;10.334;2023-11-21T05:18:02;11.86;79.57
28175;SHT30;59417;44.788;10.334;2023-11-21T05:20:28;11.87;79.70
28175;SHT30;59417;44.788;10.334;2023-11-21T05:22:58;11.80;79.97
28175;SHT30;59417;44.788;10.334;2023-11-21T05:25:39;11.74;80.44
28175;SHT30;59417;44.788;10.334;2023-11-21T05:28:09;11.64;80.51
28175;SHT30;59417;44.788;10.334;2023-11-21T05:30:45;11.69;80.57
28175;SHT30;59417;44.788;10.334;2023-11-21T05:33:30;11.53;81.13
28175;SHT30;59417;44.788;10.334;2023-11-21T05:35:58;11.56;80.96
28175;SHT30;59417;44.788;10.334;2023-11-21T05:38:24;11.63;80.96
28175;SHT30;59417;44.788;10.334;2023-11-21T05:40:50;11.36;82.17
28175;SHT30;59417;44.788;10.334;2023-11-21T05:43:27;11.27;82.89
28175;SHT30;59417;44.788;10.334;2023-11-21T05:45:55;11.26;83.13
28175;SHT30;59417;44.788;10.334;2023-11-21T05:48:21;11.55;81.53
28175;SHT30;59417;44.788;10.334;2023-11-21T05:50:57;11.64;80.89
28175;SHT30;59417;44.788;10.334;2023-11-21T05:53:30;11.62;81.31
28175;SHT30;59417;44.788;10.334;2023-11-21T05:56:10;11.71;80.21
28175;SHT30;59417;44.788;10.334;2023-11-21T05:58:48;11.77;80.14
28175;SHT30;59417;44.788;10.334;2023-11-21T06:01:13;11.69;80.81
28175;SHT30;59417;44.788;10.334;2023-11-21T06:03:52;11.67;81.02
28175;SHT30;59417;44.788;10.334;2023-11-21T06:07:05;11.62;81.33
28175;SHT30;59417;44.788;10.334;2023-11-21T06:09:45;11.62;81.20
28175;SHT30;59417;44.788;10.334;2023-11-21T06:12:22;11.47;82.14
28175;SHT30;59417;44.788;10.334;2023-11-21T06:14:54;11.29;83.06
28175;SHT30;59417;44.788;10.334;2023-11-21T06:17:33;11.29;82.91
28175;SHT30;59417;44.788;10.334;2023-11-21T06:20:05;11.43;81.93
28175;SHT30;59417;44.788;10.334;2023-11-21T06:22:45;11.53;81.77
28175;SHT30;59417;44.788;10.334;2023-11-21T06:25:14;11.53;81.39
28175;SHT30;59417;44.788;10.334;2023-11-21T06:27:44;11.59;80.78
28175;SHT30;59417;44.788;10.334;2023-11-21T06:30:19;11.57;80.91
28175;SHT30;59417;44.788;10.334;2023-11-21T06:33:03;11.66;80.67
28175;SHT30;59417;44.788;10.334;2023-11-21T06:35:49;11.62;80.69
28175;SHT30;59417;44.788;10.334;2023-11-21T06:38:15;11.69;80.69
28175;SHT30;59417;44.788;10.334;2023-11-21T06:40:41;11.63;80.92
28175;SHT30;59417;44.788;10.334;2023-11-21T06:43:07;11.59;81.44
28175;SHT30;59417;44.788;10.334;2023-11-21T06:45:33;11.52;81.73
28175;SHT30;59417;44.788;10.334;2023-11-21T06:48:00;11.50;81.91
28175;SHT30;59417;44.788;10.334;2023-11-21T06:50:26;11.32;82.32
28175;SHT30;59417;44.788;10.334;2023-11-21T06:52:51;11.42;81.97
28175;SHT30;59417;44.788;10.334;2023-11-21T06:55:17;11.38;82.31
28175;SHT30;59417;44.788;10.334;2023-11-21T06:57:43;11.43;82.28
28175;SHT30;59417;44.788;10.334;2023-11-21T07:00:10;11.45;82.31
28175;SHT30;59417;44.788;10.334;2023-11-21T07:02:39;11.52;82.48
28175;SHT30;59417;44.788;10.334;2023-11-21T07:05:05;11.45;82.63
28175;SHT30;59417;44.788;10.334;2023-11-21T07:07:31;11.50;83.07
28175;SHT30;59417;44.788;10.334;2023-11-21T07:09:59;11.50;82.91
28175;SHT30;59417;44.788;10.334;2023-11-21T07:12:30;11.60;82.86
28175;SHT30;59417;44.788;10.334;2023-11-21T07:14:59;11.40;83.70
28175;SHT30;59417;44.788;10.334;2023-11-21T07:17:25;11.45;83.91
28175;SHT30;59417;44.788;10.334;2023-11-21T07:19:51;11.56;83.16
28175;SHT30;59417;44.788;10.334;2023-11-21T07:22:23;11.50;83.65
28175;SHT30;59417;44.788;10.334;2023-11-21T07:24:51;11.56;82.90
28175;SHT30;59417;44.788;10.334;2023-11-21T07:27:20;11.53;82.86
28175;SHT30;59417;44.788;10.334;2023-11-21T07:29:46;11.46;83.63
28175;SHT30;59417;44.788;10.334;2023-11-21T07:32:19;11.42;83.53
28175;SHT30;59417;44.788;10.334;2023-11-21T07:34:44;11.46;82.75
28175;SHT30;59417;44.788;10.334;2023-11-21T07:37:10;11.43;82.81
28175;SHT30;59417;44.788;10.334;2023-11-21T07:39:35;11.43;83.39
28175;SHT30;59417;44.788;10.334;2023-11-21T07:42:02;11.38;82.89
28175;SHT30;59417;44.788;10.334;2023-11-21T07:44:28;11.39;83.04
28175;SHT30;59417;44.788;10.334;2023-11-21T07:47:06;11.39;82.75
28175;SHT30;59417;44.788;10.334;2023-11-21T07:49:31;11.26;82.98
28175;SHT30;59417;44.788;10.334;2023-11-21T07:51:57;11.30;83.02
28175;SHT30;59417;44.788;10.334;2023-11-21T07:54:31;11.29;83.12
28175;SHT30;59417;44.788;10.334;2023-11-21T07:57:01;11.30;83.18
28175;SHT30;59417;44.788;10.334;2023-11-21T07:59:28;11.32;83.15
28175;SHT30;59417;44.788;10.334;2023-11-21T08:01:54;11.32;83.06
28175;SHT30;59417;44.788;10.334;2023-11-21T08:04:19;11.19;82.65
28175;SHT30;59417;44.788;10.334;2023-11-21T08:06:45;11.26;83.21
28175;SHT30;59417;44.788;10.334;2023-11-21T08:09:15;11.35;83.20
28175;SHT30;59417;44.788;10.334;2023-11-21T08:11:42;11.36;83.21
28175;SHT30;59417;44.788;10.334;2023-11-21T08:14:08;11.39;82.64
28175;SHT30;59417;44.788;10.334;2023-11-21T08:16:34;11.30;82.62
28175;SHT30;59417;44.788;10.334;2023-11-21T08:19:10;11.39;82.73
28175;SHT30;59417;44.788;10.334;2023-11-21T08:21:37;11.42;82.47
28175;SHT30;59417;44.788;10.334;2023-11-21T08:24:06;11.45;82.50
28175;SHT30;59417;44.788;10.334;2023-11-21T08:26:32;11.47;83.00
28175;SHT30;59417;44.788;10.334;2023-11-21T08:28:57;11.53;82.69
28175;SHT30;59417;44.788;10.334;2023-11-21T08:31:25;11.46;82.98
28175;SHT30;59417;44.788;10.334;2023-11-21T08:33:55;11.43;83.28
28175;SHT30;59417;44.788;10.334;2023-11-21T08:37:02;11.39;83.46
28175;SHT30;59417;44.788;10.334;2023-11-21T08:39:57;11.33;83.82
28175;SHT30;59417;44.788;10.334;2023-11-21T08:42:43;11.26;84.24
28175;SHT30;59417;44.788;10.334;2023-11-21T08:45:24;11.33;84.38
28175;SHT30;59417;44.788;10.334;2023-11-21T08:47:51;11.38;83.92
28175;SHT30;59417;44.788;10.334;2023-11-21T08:50:20;11.35;84.19
28175;SHT30;59417;44.788;10.334;2023-11-21T08:53:05;11.36;83.74
28175;SHT30;59417;44.788;10.334;2023-11-21T08:55:51;11.36;83.44
28175;SHT30;59417;44.788;10.334;2023-11-21T08:58:28;11.27;83.94
28175;SHT30;59417;44.788;10.334;2023-11-21T09:01:00;11.40;83.45
28175;SHT30;59417;44.788;10.334;2023-11-21T09:03:46;11.40;83.36
28175;SHT30;59417;44.788;10.334;2023-11-21T09:06:12;11.43;82.77
28175;SHT30;59417;44.788;10.334;2023-11-21T09:08:39;11.45;83.06
28175;SHT30;59417;44.788;10.334;2023-11-21T09:11:05;11.50;83.05
28175;SHT30;59417;44.788;10.334;2023-11-21T09:13:40;11.40;82.98
28175;SHT30;59417;44.788;10.334;2023-11-21T09:16:06;11.38;83.45
28175;SHT30;59417;44.788;10.334;2023-11-21T09:18:46;11.46;83.34
28175;SHT30;59417;44.788;10.334;2023-11-21T09:21:15;11.40;83.43
28175;SHT30;59417;44.788;10.334;2023-11-21T09:24:03;11.32;83.53
28175;SHT30;59417;44.788;10.334;2023-11-21T09:26:46;11.35;84.18
28175;SHT30;59417;44.788;10.334;2023-11-21T09:29:42;11.26;84.33
28175;SHT30;59417;44.788;10.334;2023-11-21T09:32:11;11.26;84.51
28175;SHT30;59417;44.788;10.334;2023-11-21T09:34:42;11.32;84.95
28175;SHT30;59417;44.788;10.334;2023-11-21T09:37:32;11.35;84.15
28175;SHT30;59417;44.788;10.334;2023-11-21T09:40:05;11.32;85.01
28175;SHT30;59417;44.788;10.334;2023-11-21T09:42:55;11.32;85.22
28175;SHT30;59417;44.788;10.334;2023-11-21T09:46:14;11.23;85.18
28175;SHT30;59417;44.788;10.334;2023-11-21T09:49:18;11.19;85.78
28175;SHT30;59417;44.788;10.334;2023-11-21T09:51:55;11.12;86.00
28175;SHT30;59417;44.788;10.334;2023-11-21T09:54:24;11.18;86.23
28175;SHT30;59417;44.788;10.334;2023-11-21T09:56:55;11.35;85.61
28175;SHT30;59417;44.788;10.334;2023-11-21T09:59:21;11.40;84.65
28175;SHT30;59417;44.788;10.334;2023-11-21T10:01:50;11.40;84.68
28175;SHT30;59417;44.788;10.334;2023-11-21T10:04:22;11.40;85.07
28175;SHT30;59417;44.788;10.334;2023-11-21T10:06:49;11.59;84.35
28175;SHT30;59417;44.788;10.334;2023-11-21T10:09:16;11.71;83.80
28175;SHT30;59417;44.788;10.334;2023-11-21T10:11:42;11.64;84.03
28175;SHT30;59417;44.788;10.334;2023-11-21T10:14:12;11.81;83.69
28175;SHT30;59417;44.788;10.334;2023-11-21T10:16:40;11.71;84.59
28175;SHT30;59417;44.788;10.334;2023-11-21T10:19:10;11.69;84.06
28175;SHT30;59417;44.788;10.334;2023-11-21T10:21:40;11.59;84.09
28175;SHT30;59417;44.788;10.334;2023-11-21T10:24:10;11.55;84.70
28175;SHT30;59417;44.788;10.334;2023-11-21T10:26:47;11.76;83.86
28175;SHT30;59417;44.788;10.334;2023-11-21T10:29:17;11.67;83.59
28175;SHT30;59417;44.788;10.334;2023-11-21T10:31:43;11.77;83.95
28175;SHT30;59417;44.788;10.334;2023-11-21T10:34:19;11.97;81.63
28175;SHT30;59417;44.788;10.334;2023-11-21T10:36:46;11.70;82.46
28175;SHT30;59417;44.788;10.334;2023-11-21T10:39:30;11.76;82.75
28175;SHT30;59417;44.788;10.334;2023-11-21T10:41:59;11.77;83.41
28175;SHT30;59417;44.788;10.334;2023-11-21T10:44:37;11.91;81.88
28175;SHT30;59417;44.788;10.334;2023-11-21T10:47:24;11.98;80.69
28175;SHT30;59417;44.788;10.334;2023-11-21T10:50:13;11.94;82.01
28175;SHT30;59417;44.788;10.334;2023-11-21T10:53:05;11.90;81.99
28175;SHT30;59417;44.788;10.334;2023-11-21T10:55:38;11.84;82.90
28175;SHT30;59417;44.788;10.334;2023-11-21T10:58:35;11.81;83.77
28175;SHT30;59417;44.788;10.334;2023-11-21T11:01:06;12.04;82.31
28175;SHT30;59417;44.788;10.334;2023-11-21T11:03:33;12.20;81.51
28175;SHT30;59417;44.788;10.334;2023-11-21T11:06:06;12.13;80.50
28175;SHT30;59417;44.788;10.334;2023-11-21T11:09:03;12.11;81.28
28175;SHT30;59417;44.788;10.334;2023-11-21T11:11:36;12.14;80.94
28175;SHT30;59417;44.788;10.334;2023-11-21T11:14:09;12.09;80.89
28175;SHT30;59417;44.788;10.334;2023-11-21T11:16:40;12.09;81.78
28175;SHT30;59417;44.788;10.334;2023-11-21T11:19:09;12.13;80.61
28175;SHT30;59417;44.788;10.334;2023-11-21T11:22:04;12.08;80.81
28175;SHT30;59417;44.788;10.334;2023-11-21T11:27:21;12.07;80.96
28175;SHT30;59417;44.788;10.334;2023-11-21T11:38:36;11.98;82.40
28175;SHT30;59417;44.788;10.334;2023-11-21T11:41:04;12.13;80.15
28175;SHT30;59417;44.788;10.334;2023-11-21T11:43:31;12.27;78.63
28175;SHT30;59417;44.788;10.334;2023-11-21T11:46:12;12.18;79.16
28175;SHT30;59417;44.788;10.334;2023-11-21T11:49:02;12.01;80.36
28175;SHT30;59417;44.788;10.334;2023-11-21T11:51:31;12.18;80.24
28175;SHT30;59417;44.788;10.334;2023-11-21T11:54:34;12.27;79.92
28175;SHT30;59417;44.788;10.334;2023-11-21T11:57:03;12.11;79.99
28175;SHT30;59417;44.788;10.334;2023-11-21T11:59:29;12.02;81.33
28175;SHT30;59417;44.788;10.334;2023-11-21T12:01:56;12.37;79.13
28175;SHT30;59417;44.788;10.334;2023-11-21T12:04:28;12.18;79.87
28175;SHT30;59417;44.788;10.334;2023-11-21T12:07:00;11.99;80.85
28175;SHT30;59417;44.788;10.334;2023-11-21T12:09:33;12.13;80.41
28175;SHT30;59417;44.788;10.334;2023-11-21T12:11:59;12.29;79.94
28175;SHT30;59417;44.788;10.334;2023-11-21T12:14:25;12.48;79.13
28175;SHT30;59417;44.788;10.334;2023-11-21T12:16:51;12.44;77.93
28175;SHT30;59417;44.788;10.334;2023-11-21T12:19:17;12.29;79.03
28175;SHT30;59417;44.788;10.334;2023-11-21T12:21:43;12.22;79.57
28175;SHT30;59417;44.788;10.334;2023-11-21T12:24:14;12.09;80.14
28175;SHT30;59417;44.788;10.334;2023-11-21T12:26:43;12.05;80.68
28175;SHT30;59417;44.788;10.334;2023-11-21T12:29:09;12.07;80.99
28175;SHT30;59417;44.788;10.334;2023-11-21T12:31:36;12.09;80.99
28175;SHT30;59417;44.788;10.334;2023-11-21T12:34:05;12.08;80.28
28175;SHT30;59417;44.788;10.334;2023-11-21T12:36:35;12.14;80.17
28175;SHT30;59417;44.788;10.334;2023-11-21T12:39:02;12.21;79.85
28175;SHT30;59417;44.788;10.334;2023-11-21T12:41:31;12.31;79.70
28175;SHT30;59417;44.788;10.334;2023-11-21T12:43:57;12.39;79.46
28175;SHT30;59417;44.788;10.334;2023-11-21T12:46:23;12.46;79.44
28175;SHT30;59417;44.788;10.334;2023-11-21T12:48:59;12.63;79.44
28175;SHT30;59417;44.788;10.334;2023-11-21T12:51:28;12.58;80.18
28175;SHT30;59417;44.788;10.334;2023-11-21T12:54:13;12.59;80.53
28175;SHT30;59417;44.788;10.334;2023-11-21T12:57:05;12.72;80.16
28175;SHT30;59417;44.788;10.334;2023-11-21T12:59:33;12.77;79.70
28175;SHT30;59417;44.788;10.334;2023-11-21T13:02:20;12.73;79.75
28175;SHT30;59417;44.788;10.334;2023-11-21T13:04:52;12.76;80.01
28175;SHT30;59417;44.788;10.334;2023-11-21T13:07:21;12.86;79.50
28175;SHT30;59417;44.788;10.334;2023-11-21T13:09:52;12.76;79.59
28175;SHT30;59417;44.788;10.334;2023-11-21T13:12:24;12.87;78.98
28175;SHT30;59417;44.788;10.334;2023-11-21T13:14:50;12.84;79.16
28175;SHT30;59417;44.788;10.334;2023-11-21T13:17:17;12.89;79.17
28175;SHT30;59417;44.788;10.334;2023-11-21T13:19:44;12.96;77.40
28175;SHT30;59417;44.788;10.334;2023-11-21T13:22:09;12.79;77.82
28175;SHT30;59417;44.788;10.334;2023-11-21T13:24:42;12.80;77.19
28175;SHT30;59417;44.788;10.334;2023-11-21T13:27:08;12.60;77.40
28175;SHT30;59417;44.788;10.334;2023-11-21T13:29:36;12.55;77.86
28175;SHT30;59417;44.788;10.334;2023-11-21T13:32:01;12.62;78.05
28175;SHT30;59417;44.788;10.334;2023-11-21T13:34:32;12.62;78.49
28175;SHT30;59417;44.788;10.334;2023-11-21T13:37:08;12.66;78.44
28175;SHT30;59417;44.788;10.334;2023-11-21T13:39:43;12.87;77.82
28175;SHT30;59417;44.788;10.334;2023-11-21T13:42:11;12.80;78.00
28175;SHT30;59417;44.788;10.334;2023-11-21T13:44:37;12.68;78.34
28175;SHT30;59417;44.788;10.334;2023-11-21T13:47:06;12.59;78.87
28175;SHT30;59417;44.788;10.334;2023-11-21T13:49:31;12.52;79.48
28175;SHT30;59417;44.788;10.334;2023-11-21T13:52:43;12.60;79.87
28175;SHT30;59417;44.788;10.334;2023-11-21T13:55:01;12.58;79.73
28175;SHT30;59417;44.788;10.334;2023-11-21T13:57:33;12.68;79.37
28175;SHT30;59417;44.788;10.334;2023-11-21T13:59:59;12.77;79.58
28175;SHT30;59417;44.788;10.334;2023-11-21T14:02:52;12.69;79.37
28175;SHT30;59417;44.788;10.334;2023-11-21T14:05:27;12.59;80.25
28175;SHT30;59417;44.788;10.334;2023-11-21T14:08:00;12.62;80.23
28175;SHT30;59417;44.788;10.334;2023-11-21T14:10:40;12.63;79.79
28175;SHT30;59417;44.788;10.334;2023-11-21T14:13:12;12.60;79.75
28175;SHT30;59417;44.788;10.334;2023-11-21T14:15:41;12.63;80.02
28175;SHT30;59417;44.788;10.334;2023-11-21T14:18:08;12.56;80.08
28175;SHT30;59417;44.788;10.334;2023-11-21T14:20:42;12.51;80.61
28175;SHT30;59417;44.788;10.334;2023-11-21T14:23:10;12.66;80.38
28175;SHT30;59417;44.788;10.334;2023-11-21T14:25:41;12.66;80.25
28175;SHT30;59417;44.788;10.334;2023-11-21T14:28:07;12.56;80.80
28175;SHT30;59417;44.788;10.334;2023-11-21T14:30:33;12.58;80.74
28175;SHT30;59417;44.788;10.334;2023-11-21T14:33:02;12.52;81.01
28175;SHT30;59417;44.788;10.334;2023-11-21T14:35:28;12.46;81.43
28175;SHT30;59417;44.788;10.334;2023-11-21T14:38:01;12.37;81.76
28175;SHT30;59417;44.788;10.334;2023-11-21T14:40:31;12.37;81.67
28175;SHT30;59417;44.788;10.334;2023-11-21T14:43:00;12.39;81.60
28175;SHT30;59417;44.788;10.334;2023-11-21T14:45:26;12.48;81.03
28175;SHT30;59417;44.788;10.334;2023-11-21T14:47:52;12.68;79.88
28175;SHT30;59417;44.788;10.334;2023-11-21T14:50:35;12.51;80.59
28175;SHT30;59417;44.788;10.334;2023-11-21T14:53:07;12.39;80.90
28175;SHT30;59417;44.788;10.334;2023-11-21T14:55:34;12.63;80.09
28175;SHT30;59417;44.788;10.334;2023-11-21T14:58:18;12.59;78.69
28175;SHT30;59417;44.788;10.334;2023-11-21T15:00:56;12.55;78.76
28175;SHT30;59417;44.788;10.334;2023-11-21T15:03:27;12.46;79.17
28175;SHT30;59417;44.788;10.334;2023-11-21T15:06:04;12.41;79.43
28175;SHT30;59417;44.788;10.334;2023-11-21T15:08:56;12.51;79.71
28175;SHT30;59417;44.788;10.334;2023-11-21T15:11:50;12.41;80.33
28175;SHT30;59417;44.788;10.334;2023-11-21T15:14:55;12.42;79.17
28175;SHT30;59417;44.788;10.334;2023-11-21T15:18:08;12.34;79.27
28175;SHT30;59417;44.788;10.334;2023-11-21T15:20:46;12.28;79.79
28175;SHT30;59417;44.788;10.334;2023-11-21T15:23:15;12.13;80.50
28175;SHT30;59417;44.788;10.334;2023-11-21T15:25:45;12.16;80.76
28175;SHT30;59417;44.788;10.334;2023-11-21T15:28:11;12.27;80.46
28175;SHT30;59417;44.788;10.334;2023-11-21T15:30:37;12.32;80.14
28175;SHT30;59417;44.788;10.334;2023-11-21T15:33:03;12.28;80.49
28175;SHT30;59417;44.788;10.334;2023-11-21T15:35:29;12.16;80.84
28175;SHT30;59417;44.788;10.334;2023-11-21T15:37:55;12.09;81.50
28175;SHT30;59417;44.788;10.334;2023-11-21T15:40:24;12.31;80.80
28175;SHT30;59417;44.788;10.334;2023-11-21T15:42:50;12.38;80.21
28175;SHT30;59417;44.788;10.334;2023-11-21T15:45:16;12.35;80.67
28175;SHT30;59417;44.788;10.334;2023-11-21T15:47:49;12.16;81.25
28175;SHT30;59417;44.788;10.334;2023-11-21T15:50:15;12.16;81.83
28175;SHT30;59417;44.788;10.334;2023-11-21T15:52:41;12.11;82.08
28175;SHT30;59417;44.788;10.334;2023-11-21T15:55:09;12.14;82.45
28175;SHT30;59417;44.788;10.334;2023-11-21T15:57:45;12.13;82.80
28175;SHT30;59417;44.788;10.334;2023-11-21T16:00:15;12.14;82.52
28175;SHT30;59417;44.788;10.334;2023-11-21T16:02:49;12.16;82.45
28175;SHT30;59417;44.788;10.334;2023-11-21T16:05:14;12.24;81.96
28175;SHT30;59417;44.788;10.334;2023-11-21T16:07:42;12.34;81.94
28175;SHT30;59417;44.788;10.334;2023-11-21T16:10:11;12.25;82.27
28175;SHT30;59417;44.788;10.334;2023-11-21T16:12:40;12.27;82.45
28175;SHT30;59417;44.788;10.334;2023-11-21T16:15:09;12.27;82.31
28175;SHT30;59417;44.788;10.334;2023-11-21T16:17:37;12.27;82.43
28175;SHT30;59417;44.788;10.334;2023-11-21T16:20:03;12.52;80.79
28175;SHT30;59417;44.788;10.334;2023-11-21T16:22:39;12.37;81.34
28175;SHT30;59417;44.788;10.334;2023-11-21T16:25:06;12.14;82.38
28175;SHT30;59417;44.788;10.334;2023-11-21T16:27:40;12.04;83.28
28175;SHT30;59417;44.788;10.334;2023-11-21T16:30:09;12.14;83.58
28175;SHT30;59417;44.788;10.334;2023-11-21T16:32:35;12.09;83.79
28175;SHT30;59417;44.788;10.334;2023-11-21T16:35:03;12.09;83.88
28175;SHT30;59417;44.788;10.334;2023-11-21T16:37:39;12.13;84.25
28175;SHT30;59417;44.788;10.334;2023-11-21T16:40:06;12.44;83.42
28175;SHT30;59417;44.788;10.334;2023-11-21T16:42:34;12.51;83.10
28175;SHT30;59417;44.788;10.334;2023-11-21T16:45:01;12.32;83.62
28175;SHT30;59417;44.788;10.334;2023-11-21T16:47:27;12.46;83.28